createdAt,value
2018-02-17T00:00:02.161Z,100.00
2018-02-17T00:02:30.018Z,100.00
2018-02-17T00:04:57.843Z,100.00
2018-02-17T00:07:25.696Z,100.00
2018-02-17T00:09:53.524Z,100.00
2018-02-17T00:12:21.451Z,100.00
2018-02-17T00:14:49.334Z,100.00
2018-02-17T00:17:17.186Z,100.00
2018-02-17T00:19:45.002Z,100.00
2018-02-17T00:22:12.914Z,100.00
2018-02-17T00:24:40.844Z,100.00
2018-02-17T00:27:08.750Z,100.00
2018-02-17T00:29:36.576Z,100.00
2018-02-17T00:32:04.444Z,100.00
2018-02-17T00:34:32.243Z,100.00
2018-02-17T00:37:00.010Z,100.00
2018-02-17T00:39:27.871Z,100.00
2018-02-17T00:41:55.677Z,100.00
2018-02-17T00:44:23.551Z,100.00
2018-02-17T00:46:51.367Z,100.00
2018-02-17T00:49:19.246Z,100.00
2018-02-17T00:51:47.102Z,100.00
2018-02-17T00:54:14.981Z,100.00
2018-02-17T00:56:42.794Z,100.00
2018-02-17T00:59:10.632Z,100.00
2018-02-17T01:01:38.428Z,100.00
2018-02-17T01:04:06.281Z,100.00
2018-02-17T01:06:34.087Z,100.00
2018-02-17T01:09:02.000Z,100.00
2018-02-17T01:11:29.793Z,100.00
2018-02-17T01:13:57.636Z,100.00
2018-02-17T01:16:25.441Z,100.00
2018-02-17T01:18:53.303Z,100.00
2018-02-17T01:21:21.103Z,100.00
2018-02-17T01:23:48.966Z,100.00
2018-02-17T01:26:16.815Z,100.00
2018-02-17T01:28:44.709Z,100.00
2018-02-17T01:31:12.551Z,100.00
2018-02-17T01:33:40.420Z,100.00
2018-02-17T01:36:08.217Z,100.00
2018-02-17T01:38:36.108Z,100.00
2018-02-17T01:41:03.952Z,100.00
2018-02-17T01:43:31.813Z,100.00
2018-02-17T01:45:59.661Z,100.00
2018-02-17T01:48:27.521Z,100.00
2018-02-17T01:50:55.387Z,100.00
2018-02-17T01:53:23.278Z,100.00
2018-02-17T01:55:51.145Z,100.00
2018-02-17T01:58:19.116Z,100.00
2018-02-17T02:00:46.903Z,100.00
2018-02-17T02:03:14.742Z,100.00
2018-02-17T02:05:42.526Z,100.00
2018-02-17T02:08:10.360Z,100.00
2018-02-17T02:10:38.168Z,100.00
2018-02-17T02:13:06.040Z,100.00
2018-02-17T02:15:33.849Z,100.00
2018-02-17T02:18:01.746Z,100.00
2018-02-17T02:20:29.556Z,100.00
2018-02-17T02:22:57.374Z,100.00
2018-02-17T02:25:25.216Z,100.00
2018-02-17T02:27:53.007Z,100.00
2018-02-17T02:30:20.910Z,100.00
2018-02-17T02:32:48.718Z,100.00
2018-02-17T02:35:16.554Z,100.00
2018-02-17T02:37:44.396Z,100.00
2018-02-17T02:40:12.255Z,100.00
2018-02-17T02:42:40.052Z,100.00
2018-02-17T02:45:07.921Z,100.00
2018-02-17T02:47:35.745Z,100.00
2018-02-17T02:50:03.652Z,100.00
2018-02-17T02:52:31.456Z,100.00
2018-02-17T02:54:59.312Z,100.00
2018-02-17T02:57:27.106Z,100.00
2018-02-17T02:59:54.949Z,100.00
2018-02-17T03:02:22.744Z,100.00
2018-02-17T03:04:50.609Z,100.00
2018-02-17T03:07:18.411Z,100.00
2018-02-17T03:09:46.203Z,100.00
2018-02-17T03:12:14.003Z,100.00
2018-02-17T03:14:41.864Z,100.00
2018-02-17T03:17:09.671Z,100.00
2018-02-17T03:19:37.524Z,100.00
2018-02-17T03:22:05.386Z,100.00
2018-02-17T03:24:33.289Z,100.00
2018-02-17T03:27:01.125Z,100.00
2018-02-17T03:29:28.955Z,100.00
2018-02-17T03:31:56.781Z,100.00
2018-02-17T03:34:24.575Z,100.00
2018-02-17T03:36:52.393Z,100.00
2018-02-17T03:39:20.265Z,100.00
2018-02-17T03:41:48.077Z,100.00
2018-02-17T03:44:15.934Z,100.00
2018-02-17T03:46:43.743Z,100.00
2018-02-17T03:49:11.633Z,100.00
2018-02-17T03:51:39.450Z,100.00
2018-02-17T03:54:07.303Z,100.00
2018-02-17T03:56:35.107Z,100.00
2018-02-17T03:59:02.962Z,100.00
2018-02-17T04:01:30.752Z,100.00
2018-02-17T04:03:58.566Z,100.00
2018-02-17T04:06:26.419Z,100.00
2018-02-17T04:08:54.202Z,100.00
2018-02-17T04:11:22.048Z,100.00
2018-02-17T04:13:49.844Z,100.00
2018-02-17T04:16:17.688Z,100.00
2018-02-17T04:18:45.482Z,100.00
2018-02-17T04:21:13.372Z,100.00
2018-02-17T04:23:41.217Z,100.00
2018-02-17T04:26:09.052Z,100.00
2018-02-17T04:28:36.848Z,100.00
2018-02-17T04:31:04.720Z,100.00
2018-02-17T04:33:32.515Z,100.00
2018-02-17T04:36:00.354Z,100.00
2018-02-17T04:38:28.195Z,100.00
2018-02-17T04:41:00.536Z,100.00
2018-02-17T04:43:32.817Z,100.00
2018-02-17T04:46:16.448Z,100.00
2018-02-17T04:48:55.117Z,100.00
2018-02-17T04:51:23.072Z,100.00
2018-02-17T04:54:05.755Z,100.00
2018-02-17T04:56:39.250Z,100.00
2018-02-17T04:59:12.561Z,100.00
2018-02-17T05:01:45.888Z,100.00
2018-02-17T05:04:28.570Z,100.00
2018-02-17T05:07:00.770Z,100.00
2018-02-17T05:09:28.672Z,100.00
2018-02-17T05:11:56.583Z,100.00
2018-02-17T05:14:24.912Z,100.00
2018-02-17T05:16:59.402Z,100.00
2018-02-17T05:19:33.295Z,100.00
2018-02-17T05:22:01.203Z,100.00
2018-02-17T05:24:30.515Z,100.00
2018-02-17T05:26:59.243Z,100.00
2018-02-17T05:29:38.813Z,100.00
2018-02-17T05:32:10.685Z,100.00
2018-02-17T05:34:38.542Z,100.00
2018-02-17T05:37:06.442Z,100.00
2018-02-17T05:39:36.099Z,100.00
2018-02-17T05:42:08.874Z,100.00
2018-02-17T05:44:52.367Z,100.00
2018-02-17T05:47:25.920Z,100.00
2018-02-17T05:49:53.822Z,100.00
2018-02-17T05:52:21.659Z,100.00
2018-02-17T05:54:49.445Z,100.00
2018-02-17T05:57:17.319Z,100.00
2018-02-17T05:59:45.126Z,100.00
2018-02-17T06:02:12.993Z,100.00
2018-02-17T06:04:40.845Z,100.00
2018-02-17T06:07:08.749Z,100.00
2018-02-17T06:09:36.561Z,100.00
2018-02-17T06:12:04.500Z,100.00
2018-02-17T06:14:32.368Z,100.00
2018-02-17T06:17:00.317Z,100.00
2018-02-17T06:19:28.163Z,100.00
2018-02-17T06:21:55.964Z,100.00
2018-02-17T06:24:23.790Z,100.00
2018-02-17T06:26:51.697Z,100.00
2018-02-17T06:29:19.491Z,100.00
2018-02-17T06:31:47.349Z,100.00
2018-02-17T06:34:15.210Z,100.00
2018-02-17T06:36:43.059Z,100.00
2018-02-17T06:39:10.882Z,100.00
2018-02-17T06:41:38.755Z,100.00
2018-02-17T06:44:06.552Z,100.00
2018-02-17T06:46:34.430Z,100.00
2018-02-17T06:49:02.241Z,100.00
2018-02-17T06:51:30.167Z,100.00
2018-02-17T06:53:58.037Z,100.00
2018-02-17T06:56:25.958Z,100.00
2018-02-17T06:58:53.772Z,100.00
2018-02-17T07:01:21.690Z,100.00
2018-02-17T07:03:49.500Z,100.00
2018-02-17T07:06:17.400Z,100.00
2018-02-17T07:08:45.241Z,100.00
2018-02-17T07:11:13.105Z,100.00
2018-02-17T07:13:40.901Z,100.00
2018-02-17T07:16:08.800Z,100.00
2018-02-17T07:18:36.612Z,100.00
2018-02-17T07:21:04.460Z,100.00
2018-02-17T07:23:32.270Z,100.00
2018-02-17T07:26:00.156Z,100.00
2018-02-17T07:28:28.044Z,100.00
2018-02-17T07:30:55.872Z,100.00
2018-02-17T07:33:23.767Z,100.00
2018-02-17T07:35:51.616Z,100.00
2018-02-17T07:38:19.528Z,100.00
2018-02-17T07:40:47.327Z,100.00
2018-02-17T07:43:15.196Z,100.00
2018-02-17T07:45:43.029Z,100.00
2018-02-17T07:48:10.967Z,100.00
2018-02-17T07:50:38.815Z,100.00
2018-02-17T07:53:06.672Z,100.00
2018-02-17T07:55:34.547Z,100.00
2018-02-17T07:58:02.424Z,100.00
2018-02-17T08:00:30.269Z,100.00
2018-02-17T08:02:58.201Z,100.00
2018-02-17T08:05:26.063Z,100.00
2018-02-17T08:07:53.974Z,100.00
2018-02-17T08:10:21.879Z,100.00
2018-02-17T08:12:49.764Z,100.00
2018-02-17T08:15:17.603Z,100.00
2018-02-17T08:17:45.529Z,100.00
2018-02-17T08:20:13.405Z,100.00
2018-02-17T08:22:41.297Z,100.00
2018-02-17T08:25:09.181Z,100.00
2018-02-17T08:27:37.096Z,100.00
2018-02-17T08:30:04.951Z,100.00
2018-02-17T08:32:32.989Z,100.00
2018-02-17T08:35:00.860Z,100.00
2018-02-17T08:37:28.767Z,100.00
2018-02-17T08:39:56.626Z,100.00
2018-02-17T08:42:24.502Z,100.00
2018-02-17T08:44:52.352Z,100.00
2018-02-17T08:47:20.246Z,100.00
2018-02-17T08:49:48.115Z,100.00
2018-02-17T08:52:16.029Z,100.00
2018-02-17T08:54:43.883Z,100.00
2018-02-17T08:57:11.807Z,100.00
2018-02-17T08:59:39.716Z,100.00
2018-02-17T09:02:07.640Z,100.00
2018-02-17T09:04:35.489Z,100.00
2018-02-17T09:07:03.419Z,100.00
2018-02-17T09:09:31.207Z,100.00
2018-02-17T09:11:59.136Z,100.00
2018-02-17T09:14:26.984Z,100.00
2018-02-17T09:16:54.855Z,100.00
2018-02-17T09:19:22.770Z,100.00
2018-02-17T09:21:50.649Z,100.00
2018-02-17T09:24:18.650Z,100.00
2018-02-17T09:26:46.537Z,100.00
2018-02-17T09:29:14.456Z,100.00
2018-02-17T09:31:42.293Z,100.00
2018-02-17T09:34:10.209Z,100.00
2018-02-17T09:36:38.024Z,100.00
2018-02-17T09:39:05.989Z,100.00
2018-02-17T09:41:33.849Z,100.00
2018-02-17T09:44:02.672Z,100.00
2018-02-17T09:46:30.521Z,100.00
2018-02-17T09:48:58.385Z,100.00
2018-02-17T09:51:26.346Z,100.00
2018-02-17T09:53:54.259Z,100.00
2018-02-17T09:56:22.124Z,100.00
2018-02-17T09:58:50.025Z,100.00
2018-02-17T10:01:17.905Z,100.00
2018-02-17T10:03:45.837Z,100.00
2018-02-17T10:06:13.678Z,100.00
2018-02-17T10:08:41.573Z,100.00
2018-02-17T10:11:09.464Z,100.00
2018-02-17T10:13:37.376Z,100.00
2018-02-17T10:16:05.180Z,100.00
2018-02-17T10:18:33.058Z,100.00
2018-02-17T10:21:00.891Z,100.00
2018-02-17T10:23:28.808Z,100.00
2018-02-17T10:25:56.723Z,100.00
2018-02-17T10:28:24.624Z,100.00
2018-02-17T10:30:52.461Z,100.00
2018-02-17T10:33:20.376Z,100.00
2018-02-17T10:35:48.198Z,100.00
2018-02-17T10:38:16.113Z,100.00
2018-02-17T10:40:43.932Z,100.00
2018-02-17T10:43:11.832Z,100.00
2018-02-17T10:45:39.697Z,100.00
2018-02-17T10:48:07.584Z,100.00
2018-02-17T10:50:35.473Z,100.00
2018-02-17T10:53:03.317Z,100.00
2018-02-17T10:55:36.550Z,100.00
2018-02-17T10:58:04.451Z,100.00
2018-02-17T11:00:32.351Z,100.00
2018-02-17T11:03:00.305Z,100.00
2018-02-17T11:05:28.156Z,100.00
2018-02-17T11:07:55.982Z,100.00
2018-02-17T11:10:23.885Z,100.00
2018-02-17T11:12:51.771Z,100.00
2018-02-17T11:15:19.676Z,100.00
2018-02-17T11:17:48.518Z,100.00
2018-02-17T11:20:16.456Z,100.00
2018-02-17T11:22:44.273Z,100.00
2018-02-17T11:25:12.171Z,100.00
2018-02-17T11:27:40.052Z,100.00
2018-02-17T11:30:07.955Z,100.00
2018-02-17T11:32:35.829Z,100.00
2018-02-17T11:35:03.721Z,100.00
2018-02-17T11:37:31.600Z,100.00
2018-02-17T11:39:59.504Z,100.00
2018-02-17T11:42:27.368Z,100.00
2018-02-17T11:44:55.236Z,100.00
2018-02-17T11:47:23.110Z,100.00
2018-02-17T11:49:51.080Z,100.00
2018-02-17T11:52:18.884Z,100.00
2018-02-17T11:54:46.738Z,100.00
2018-02-17T11:57:14.612Z,100.00
2018-02-17T11:59:42.525Z,100.00
2018-02-17T12:02:10.403Z,100.00
2018-02-17T12:04:38.274Z,100.00
2018-02-17T12:07:06.157Z,100.00
2018-02-17T12:09:34.028Z,100.00
2018-02-17T12:12:01.904Z,100.00
2018-02-17T12:14:29.788Z,100.00
2018-02-17T12:16:57.681Z,100.00
2018-02-17T12:19:25.565Z,100.00
2018-02-17T12:21:53.417Z,100.00
2018-02-17T12:24:21.284Z,100.00
2018-02-17T12:26:49.149Z,100.00
2018-02-17T12:29:17.044Z,100.00
2018-02-17T12:31:44.920Z,100.00
2018-02-17T12:34:12.794Z,100.00
2018-02-17T12:36:40.638Z,100.00
2018-02-17T12:39:08.479Z,99.84
2018-02-17T12:41:36.294Z,99.31
2018-02-17T12:44:04.187Z,98.86
2018-02-17T12:46:32.016Z,98.43
2018-02-17T12:48:59.917Z,97.44
2018-02-17T12:51:27.785Z,96.40
2018-02-17T12:53:55.752Z,95.13
2018-02-17T12:56:23.649Z,95.15
2018-02-17T12:58:51.526Z,94.68
2018-02-17T13:01:19.427Z,95.49
2018-02-17T13:03:47.259Z,95.73
2018-02-17T13:06:15.175Z,93.97
2018-02-17T13:08:43.051Z,93.67
2018-02-17T13:11:10.933Z,93.66
2018-02-17T13:13:38.800Z,92.91
2018-02-17T13:16:06.713Z,91.77
2018-02-17T13:18:35.106Z,92.07
2018-02-17T13:21:03.020Z,92.30
2018-02-17T13:23:30.829Z,93.16
2018-02-17T13:25:58.681Z,93.97
2018-02-17T13:28:26.529Z,94.64
2018-02-17T13:30:54.376Z,94.96
2018-02-17T13:33:22.233Z,95.25
2018-02-17T13:35:50.088Z,95.25
2018-02-17T13:38:17.953Z,96.79
2018-02-17T13:40:45.838Z,98.20
2018-02-17T13:43:13.671Z,99.05
2018-02-17T13:45:41.529Z,99.38
2018-02-17T13:48:09.374Z,99.09
2018-02-17T13:50:37.323Z,99.25
2018-02-17T13:53:05.158Z,99.95
2018-02-17T13:55:33.072Z,100.00
2018-02-17T13:58:00.901Z,100.00
2018-02-17T14:00:28.798Z,100.00
2018-02-17T14:02:56.628Z,100.00
2018-02-17T14:05:24.536Z,100.00
2018-02-17T14:07:52.388Z,100.00
2018-02-17T14:10:20.295Z,100.00
2018-02-17T14:12:48.066Z,100.00
2018-02-17T14:15:15.924Z,100.00
2018-02-17T14:17:43.807Z,100.00
2018-02-17T14:20:11.649Z,100.00
2018-02-17T14:22:39.458Z,100.00
2018-02-17T14:25:07.369Z,100.00
2018-02-17T14:27:35.236Z,100.00
2018-02-17T14:30:03.158Z,100.00
2018-02-17T14:32:30.992Z,100.00
2018-02-17T14:34:58.829Z,100.00
2018-02-17T14:37:26.725Z,100.00
2018-02-17T14:39:54.588Z,100.00
2018-02-17T14:42:22.390Z,100.00
2018-02-17T14:44:50.228Z,100.00
2018-02-17T14:47:18.135Z,100.00
2018-02-17T14:49:46.034Z,100.00
2018-02-17T14:52:13.901Z,100.00
2018-02-17T14:54:41.814Z,100.00
2018-02-17T14:57:09.712Z,100.00
2018-02-17T14:59:37.568Z,100.00
2018-02-17T15:02:05.421Z,100.00
2018-02-17T15:04:33.263Z,100.00
2018-02-17T15:07:01.128Z,100.00
2018-02-17T15:09:29.000Z,100.00
2018-02-17T15:11:56.856Z,100.00
2018-02-17T15:14:24.645Z,100.00
2018-02-17T15:16:52.506Z,100.00
2018-02-17T15:19:20.326Z,100.00
2018-02-17T15:21:48.183Z,100.00
2018-02-17T15:24:16.039Z,100.00
2018-02-17T15:26:43.938Z,100.00
2018-02-17T15:29:11.816Z,100.00
2018-02-17T15:31:39.735Z,100.00
2018-02-17T15:34:07.565Z,100.00
2018-02-17T15:36:35.429Z,100.00
2018-02-17T15:39:03.378Z,100.00
2018-02-17T15:41:31.249Z,100.00
2018-02-17T15:44:00.037Z,100.00
2018-02-17T15:46:27.993Z,100.00
2018-02-17T15:48:55.845Z,100.00
2018-02-17T15:51:23.756Z,100.00
2018-02-17T15:53:51.608Z,100.00
2018-02-17T15:56:19.848Z,100.00
2018-02-17T15:58:47.685Z,100.00
2018-02-17T16:01:15.600Z,100.00
2018-02-17T16:03:43.424Z,100.00
2018-02-17T16:06:11.358Z,100.00
2018-02-17T16:08:39.219Z,100.00
2018-02-17T16:11:07.116Z,100.00
2018-02-17T16:13:34.947Z,100.00
2018-02-17T16:16:02.798Z,100.00
2018-02-17T16:18:30.645Z,100.00
2018-02-17T16:20:58.500Z,100.00
2018-02-17T16:23:26.403Z,100.00
2018-02-17T16:25:54.273Z,100.00
2018-02-17T16:28:22.191Z,100.00
2018-02-17T16:30:50.062Z,100.00
2018-02-17T16:33:17.943Z,100.00
2018-02-17T16:35:45.792Z,100.00
2018-02-17T16:38:13.748Z,100.00
2018-02-17T16:40:41.592Z,100.00
2018-02-17T16:43:09.522Z,100.00
2018-02-17T16:45:37.363Z,100.00
2018-02-17T16:48:05.277Z,100.00
2018-02-17T16:50:33.240Z,100.00
2018-02-17T16:53:01.064Z,100.00
2018-02-17T16:55:28.894Z,100.00
2018-02-17T16:57:56.785Z,100.00
2018-02-17T17:00:24.596Z,100.00
2018-02-17T17:02:52.496Z,100.00
2018-02-17T17:05:20.372Z,100.00
2018-02-17T17:07:48.308Z,100.00
2018-02-17T17:10:16.145Z,100.00
2018-02-17T17:12:44.025Z,100.00
2018-02-17T17:15:11.872Z,100.00
2018-02-17T17:17:39.792Z,100.00
2018-02-17T17:20:07.648Z,100.00
2018-02-17T17:22:35.561Z,100.00
2018-02-17T17:25:03.408Z,100.00
2018-02-17T17:27:31.301Z,100.00
2018-02-17T17:29:59.197Z,100.00
2018-02-17T17:32:27.196Z,100.00
2018-02-17T17:34:55.041Z,100.00
2018-02-17T17:37:22.947Z,100.00
2018-02-17T17:39:50.820Z,100.00
2018-02-17T17:42:18.709Z,100.00
2018-02-17T17:44:46.709Z,100.00
2018-02-17T17:47:14.575Z,100.00
2018-02-17T17:49:42.439Z,100.00
2018-02-17T17:52:10.320Z,100.00
2018-02-17T17:54:38.161Z,100.00
2018-02-17T17:57:06.077Z,100.00
2018-02-17T17:59:33.937Z,100.00
2018-02-17T18:02:02.274Z,100.00
2018-02-17T18:04:30.142Z,100.00
2018-02-17T18:06:58.000Z,100.00
2018-02-17T18:09:26.089Z,100.00
2018-02-17T18:11:53.900Z,100.00
2018-02-17T18:14:21.808Z,100.00
2018-02-17T18:16:49.681Z,100.00
2018-02-17T18:19:17.577Z,100.00
2018-02-17T18:21:45.407Z,100.00
2018-02-17T18:24:13.299Z,100.00
2018-02-17T18:26:41.160Z,100.00
2018-02-17T18:29:09.080Z,100.00
2018-02-17T18:31:36.951Z,100.00
2018-02-17T18:34:04.892Z,100.00
2018-02-17T18:36:32.789Z,100.00
2018-02-17T18:39:00.657Z,100.00
2018-02-17T18:41:28.527Z,100.00
2018-02-17T18:43:56.408Z,100.00
2018-02-17T18:46:24.269Z,100.00
2018-02-17T18:48:52.228Z,100.00
2018-02-17T18:51:20.108Z,100.00
2018-02-17T18:53:48.030Z,100.00
2018-02-17T18:56:15.832Z,100.00
2018-02-17T18:58:43.728Z,100.00
2018-02-17T19:01:11.587Z,100.00
2018-02-17T19:03:39.496Z,100.00
2018-02-17T19:06:07.338Z,100.00
2018-02-17T19:08:35.198Z,100.00
2018-02-17T19:11:03.060Z,100.00
2018-02-17T19:13:30.986Z,100.00
2018-02-17T19:15:58.859Z,100.00
2018-02-17T19:18:26.744Z,100.00
2018-02-17T19:20:54.571Z,100.00
2018-02-17T19:23:22.420Z,100.00
2018-02-17T19:25:50.226Z,100.00
2018-02-17T19:28:18.092Z,100.00
2018-02-17T19:30:45.925Z,100.00
2018-02-17T19:33:13.809Z,100.00
2018-02-17T19:35:41.690Z,100.00
2018-02-17T19:38:09.575Z,100.00
2018-02-17T19:40:37.388Z,100.00
2018-02-17T19:43:05.285Z,100.00
2018-02-17T19:45:33.141Z,100.00
2018-02-17T19:48:01.012Z,100.00
2018-02-17T19:50:28.920Z,100.00
2018-02-17T19:52:56.752Z,100.00
2018-02-17T19:55:24.656Z,100.00
2018-02-17T19:57:52.732Z,100.00
2018-02-17T20:00:20.635Z,100.00
2018-02-17T20:02:48.513Z,100.00
2018-02-17T20:05:16.411Z,100.00
2018-02-17T20:07:44.285Z,100.00
2018-02-17T20:10:12.779Z,100.00
2018-02-17T20:12:40.665Z,100.00
2018-02-17T20:15:08.560Z,100.00
2018-02-17T20:17:36.398Z,100.00
2018-02-17T20:20:04.335Z,100.00
2018-02-17T20:22:32.204Z,100.00
2018-02-17T20:25:00.117Z,100.00
2018-02-17T20:27:27.963Z,100.00
2018-02-17T20:29:55.849Z,100.00
2018-02-17T20:32:23.704Z,100.00
2018-02-17T20:34:51.580Z,100.00
2018-02-17T20:37:19.416Z,100.00
2018-02-17T20:39:47.337Z,100.00
2018-02-17T20:42:15.204Z,100.00
2018-02-17T20:44:43.104Z,100.00
2018-02-17T20:47:10.923Z,100.00
2018-02-17T20:49:38.869Z,100.00
2018-02-17T20:52:06.731Z,100.00
2018-02-17T20:54:34.681Z,100.00
2018-02-17T20:57:02.497Z,100.00
2018-02-17T20:59:30.359Z,100.00
2018-02-17T21:01:58.178Z,100.00
2018-02-17T21:04:26.076Z,100.00
2018-02-17T21:06:53.954Z,100.00
2018-02-17T21:09:21.779Z,100.00
2018-02-17T21:11:49.630Z,100.00
2018-02-17T21:14:17.537Z,100.00
2018-02-17T21:16:45.417Z,100.00
2018-02-17T21:19:13.309Z,100.00
2018-02-17T21:21:41.164Z,100.00
2018-02-17T21:24:09.042Z,100.00
2018-02-17T21:26:36.857Z,100.00
2018-02-17T21:29:04.785Z,100.00
2018-02-17T21:31:32.608Z,100.00
2018-02-17T21:34:00.486Z,100.00
2018-02-17T21:36:28.336Z,100.00
2018-02-17T21:38:56.157Z,100.00
2018-02-17T21:41:24.041Z,100.00
2018-02-17T21:43:51.877Z,100.00
2018-02-17T21:46:19.774Z,100.00
2018-02-17T21:48:47.655Z,100.00
2018-02-17T21:51:15.615Z,100.00
2018-02-17T21:53:43.459Z,100.00
2018-02-17T21:56:11.383Z,100.00
2018-02-17T21:58:39.235Z,100.00
2018-02-17T22:01:07.084Z,100.00
2018-02-17T22:03:34.924Z,100.00
2018-02-17T22:06:02.824Z,100.00
2018-02-17T22:08:30.693Z,100.00
2018-02-17T22:10:58.583Z,100.00
2018-02-17T22:13:26.437Z,100.00
2018-02-17T22:15:54.356Z,100.00
2018-02-17T22:18:22.230Z,100.00
2018-02-17T22:20:50.021Z,100.00
2018-02-17T22:23:17.882Z,100.00
2018-02-17T22:25:45.792Z,100.00
2018-02-17T22:28:13.649Z,100.00
2018-02-17T22:30:41.537Z,100.00
2018-02-17T22:33:09.392Z,100.00
2018-02-17T22:35:37.276Z,100.00
2018-02-17T22:38:05.086Z,100.00
2018-02-17T22:40:32.976Z,100.00
2018-02-17T22:43:00.812Z,100.00
2018-02-17T22:45:28.668Z,100.00
2018-02-17T22:47:56.483Z,100.00
2018-02-17T22:50:24.386Z,100.00
2018-02-17T22:52:52.247Z,100.00
2018-02-17T22:55:20.105Z,100.00
2018-02-17T22:57:47.945Z,100.00
2018-02-17T23:00:33.585Z,100.00
2018-02-17T23:03:01.433Z,100.00
2018-02-17T23:05:29.320Z,100.00
2018-02-17T23:07:57.136Z,100.00
2018-02-17T23:10:25.066Z,100.00
2018-02-17T23:12:52.933Z,100.00
2018-02-17T23:15:20.838Z,100.00
2018-02-17T23:17:48.643Z,100.00
2018-02-17T23:20:16.483Z,100.00
2018-02-17T23:22:44.331Z,100.00
2018-02-17T23:25:12.241Z,100.00
2018-02-17T23:27:40.115Z,100.00
2018-02-17T23:30:07.969Z,100.00
2018-02-17T23:32:35.776Z,100.00
2018-02-17T23:35:03.606Z,100.00
2018-02-17T23:37:31.480Z,100.00
2018-02-17T23:39:59.303Z,100.00
2018-02-17T23:42:27.143Z,100.00
2018-02-17T23:44:54.980Z,100.00
2018-02-17T23:47:22.838Z,100.00
2018-02-17T23:49:50.673Z,100.00
2018-02-17T23:52:18.548Z,100.00
2018-02-17T23:54:46.359Z,100.00
2018-02-17T23:57:14.204Z,100.00
2018-02-17T23:59:42.013Z,100.00
